createdAt,value
2018-07-06T00:01:10.555Z,72.24
2018-07-06T00:03:57.696Z,73.30
2018-07-06T00:06:44.822Z,73.55
2018-07-06T00:09:32.137Z,73.82
2018-07-06T00:12:19.695Z,73.42
2018-07-06T00:15:06.679Z,73.42
2018-07-06T00:17:54.233Z,73.90
2018-07-06T00:20:41.318Z,73.60
2018-07-06T00:23:28.439Z,73.78
2018-07-06T00:26:15.995Z,73.75
2018-07-06T00:29:02.983Z,74.03
2018-07-06T00:31:50.510Z,74.66
2018-07-06T00:34:37.724Z,74.99
2018-07-06T00:37:24.887Z,74.69
2018-07-06T00:43:05.732Z,74.19
2018-07-06T00:45:53.055Z,74.60
2018-07-06T00:48:40.323Z,75.03
2018-07-06T00:51:27.703Z,75.38
2018-07-06T00:54:14.877Z,75.56
2018-07-06T00:57:02.340Z,76.36
2018-07-06T00:59:49.815Z,76.41
2018-07-06T01:02:36.789Z,76.09
2018-07-06T01:05:23.795Z,75.22
2018-07-06T01:08:10.807Z,75.65
2018-07-06T01:10:58.029Z,76.42
2018-07-06T01:13:45.864Z,76.69
2018-07-06T01:16:33.184Z,76.38
2018-07-06T01:19:20.506Z,76.29
2018-07-06T01:22:07.615Z,76.34
2018-07-06T01:24:54.640Z,77.21
2018-07-06T01:27:42.267Z,77.27
2018-07-06T01:30:29.832Z,77.66
2018-07-06T01:33:17.016Z,77.83
2018-07-06T01:36:05.016Z,78.34
2018-07-06T01:38:52.741Z,77.59
2018-07-06T01:41:55.571Z,77.93
2018-07-06T01:44:42.912Z,77.90
2018-07-06T01:47:30.423Z,78.17
2018-07-06T01:50:17.740Z,78.37
2018-07-06T01:53:04.744Z,78.68
2018-07-06T01:55:52.002Z,79.54
2018-07-06T01:58:39.197Z,79.15
2018-07-06T02:01:26.332Z,79.75
2018-07-06T02:04:13.544Z,79.64
2018-07-06T02:07:00.546Z,79.29
2018-07-06T02:09:47.664Z,79.31
2018-07-06T02:12:34.880Z,79.10
2018-07-06T02:15:22.075Z,78.46
2018-07-06T02:18:09.217Z,78.86
2018-07-06T02:20:56.406Z,79.29
2018-07-06T02:23:43.555Z,79.74
2018-07-06T02:26:30.663Z,79.84
2018-07-06T02:29:17.891Z,79.71
2018-07-06T02:32:05.211Z,79.25
2018-07-06T02:34:52.384Z,79.66
2018-07-06T02:37:39.559Z,80.02
2018-07-06T02:40:26.563Z,80.97
2018-07-06T02:43:13.731Z,81.05
2018-07-06T02:46:01.076Z,81.64
2018-07-06T02:48:48.019Z,81.38
2018-07-06T02:51:35.439Z,82.38
2018-07-06T02:54:22.670Z,81.33
2018-07-06T02:57:09.938Z,81.49
2018-07-06T02:59:57.352Z,81.03
2018-07-06T03:02:44.421Z,81.12
2018-07-06T03:05:31.946Z,81.31
2018-07-06T03:08:19.371Z,81.52
2018-07-06T03:11:06.668Z,81.24
2018-07-06T03:13:53.786Z,81.48
2018-07-06T03:16:40.946Z,81.55
2018-07-06T03:19:28.043Z,81.70
2018-07-06T03:22:15.160Z,81.88
2018-07-06T03:25:03.309Z,81.37
2018-07-06T03:27:50.530Z,80.13
2018-07-06T03:30:37.678Z,79.71
2018-07-06T03:33:24.921Z,78.98
2018-07-06T03:36:11.981Z,77.58
2018-07-06T03:38:59.254Z,76.84
2018-07-06T03:41:46.617Z,75.32
2018-07-06T03:44:33.943Z,73.49
2018-07-06T03:47:21.060Z,72.25
2018-07-06T03:50:09.812Z,71.18
2018-07-06T03:52:56.927Z,70.47
2018-07-06T03:55:44.148Z,69.47
2018-07-06T03:58:31.471Z,68.28
2018-07-06T04:01:18.709Z,66.61
2018-07-06T04:04:06.013Z,64.41
2018-07-06T04:06:53.441Z,62.91
2018-07-06T04:09:41.574Z,62.46
2018-07-06T04:12:29.141Z,59.73
2018-07-06T04:15:16.131Z,59.80
2018-07-06T04:18:03.441Z,58.76
2018-07-06T04:20:50.566Z,59.34
2018-07-06T04:23:37.880Z,58.55
2018-07-06T04:26:25.009Z,58.42
2018-07-06T04:29:12.134Z,57.26
2018-07-06T04:31:59.305Z,56.27
2018-07-06T04:34:46.551Z,54.59
2018-07-06T04:37:33.875Z,53.89
2018-07-06T04:40:21.200Z,52.95
2018-07-06T04:43:08.332Z,50.77
2018-07-06T04:45:55.530Z,49.78
2018-07-06T04:48:42.663Z,49.35
2018-07-06T04:51:29.674Z,47.84
2018-07-06T04:54:16.894Z,48.01
2018-07-06T04:57:04.006Z,45.95
2018-07-06T04:59:51.345Z,46.13
2018-07-06T05:02:39.108Z,46.48
2018-07-06T05:05:26.169Z,43.88
2018-07-06T05:08:13.391Z,43.39
2018-07-06T05:11:00.505Z,43.91
2018-07-06T05:13:47.743Z,43.46
2018-07-06T05:16:35.054Z,44.24
2018-07-06T05:19:23.403Z,43.29
2018-07-06T05:22:10.630Z,43.40
2018-07-06T05:24:58.035Z,41.85
2018-07-06T05:27:45.360Z,42.85
2018-07-06T05:30:32.788Z,42.36
2018-07-06T05:33:20.310Z,41.12
2018-07-06T05:36:07.631Z,41.54
2018-07-06T05:38:54.951Z,39.67
2018-07-06T05:41:41.967Z,40.01
2018-07-06T05:44:29.348Z,38.56
2018-07-06T05:47:16.509Z,39.20
2018-07-06T05:50:04.105Z,37.94
2018-07-06T05:52:51.222Z,37.59
2018-07-06T05:55:38.577Z,36.78
2018-07-06T05:58:25.610Z,37.66
2018-07-06T06:01:12.972Z,38.61
2018-07-06T06:04:00.139Z,37.90
2018-07-06T06:06:47.169Z,38.62
2018-07-06T06:09:23.372Z,38.44
2018-07-06T06:11:54.245Z,38.78
2018-07-06T06:14:24.818Z,37.12
2018-07-06T06:16:55.242Z,37.03
2018-07-06T06:19:25.688Z,37.53
2018-07-06T06:21:56.018Z,35.72
2018-07-06T06:24:26.528Z,36.28
2018-07-06T06:26:56.861Z,36.63
2018-07-06T06:29:27.584Z,35.43
2018-07-06T06:31:58.123Z,35.36
2018-07-06T06:34:28.932Z,35.21
2018-07-06T06:36:59.928Z,35.63
2018-07-06T06:39:31.072Z,35.27
2018-07-06T06:42:02.791Z,35.09
2018-07-06T06:44:33.325Z,33.94
2018-07-06T06:47:03.969Z,33.07
2018-07-06T06:49:34.557Z,33.34
2018-07-06T06:52:05.136Z,33.22
2018-07-06T06:54:35.695Z,31.92
2018-07-06T06:57:06.122Z,31.72
2018-07-06T06:59:36.565Z,31.02
2018-07-06T07:02:07.173Z,32.00
2018-07-06T07:04:37.707Z,31.70
2018-07-06T07:07:08.093Z,32.18
2018-07-06T07:09:38.711Z,30.26
2018-07-06T07:12:09.106Z,31.85
2018-07-06T07:14:39.683Z,32.09
2018-07-06T07:17:10.340Z,31.93
2018-07-06T07:19:40.843Z,32.56
2018-07-06T07:22:11.460Z,32.54
2018-07-06T07:24:42.055Z,33.74
2018-07-06T07:27:12.582Z,30.87
2018-07-06T07:29:43.314Z,29.69
2018-07-06T07:32:13.894Z,31.08
2018-07-06T07:34:44.558Z,30.49
2018-07-06T07:37:15.110Z,28.63
2018-07-06T07:39:45.764Z,28.45
2018-07-06T07:42:16.348Z,32.01
2018-07-06T07:44:46.695Z,29.68
2018-07-06T07:47:17.619Z,30.13
2018-07-06T07:49:48.964Z,29.58
2018-07-06T07:52:30.317Z,32.47
2018-07-06T07:55:00.963Z,29.90
2018-07-06T07:57:31.452Z,30.33
2018-07-06T08:00:02.119Z,28.27
2018-07-06T08:02:32.775Z,31.65
2018-07-06T08:05:03.243Z,29.48
2018-07-06T08:07:33.619Z,27.76
2018-07-06T08:10:04.223Z,28.20
2018-07-06T08:12:34.791Z,28.67
2018-07-06T08:15:05.367Z,29.71
2018-07-06T08:17:35.759Z,29.19
2018-07-06T08:20:06.392Z,26.99
2018-07-06T08:22:36.973Z,27.25
2018-07-06T08:25:07.577Z,27.16
2018-07-06T08:27:38.216Z,26.16
2018-07-06T08:30:08.846Z,28.71
2018-07-06T08:32:39.430Z,26.27
2018-07-06T08:35:20.627Z,26.87
2018-07-06T08:37:58.661Z,28.01
2018-07-06T08:40:29.436Z,28.49
2018-07-06T08:43:00.994Z,26.24
2018-07-06T08:45:32.140Z,26.59
2018-07-06T08:48:02.662Z,27.39
2018-07-06T08:50:33.623Z,28.62
2018-07-06T08:53:06.016Z,28.34
2018-07-06T08:55:37.461Z,26.91
2018-07-06T08:58:08.085Z,25.83
2018-07-06T09:00:38.647Z,23.78
2018-07-06T09:03:09.199Z,23.80
2018-07-06T09:05:39.810Z,23.39
2018-07-06T09:08:10.689Z,23.00
2018-07-06T09:10:41.252Z,22.21
2018-07-06T09:13:11.733Z,22.88
2018-07-06T09:15:42.339Z,24.78
2018-07-06T09:18:12.711Z,24.00
2018-07-06T09:20:43.198Z,21.16
2018-07-06T09:23:13.724Z,21.47
2018-07-06T09:25:44.345Z,22.24
2018-07-06T09:28:15.000Z,23.68
2018-07-06T09:30:45.394Z,23.92
2018-07-06T09:33:15.784Z,24.12
2018-07-06T09:35:46.670Z,24.02
2018-07-06T09:38:17.097Z,24.45
2018-07-06T09:40:47.627Z,24.09
2018-07-06T09:43:18.361Z,23.07
2018-07-06T09:45:48.897Z,22.40
2018-07-06T09:48:19.480Z,22.99
2018-07-06T09:50:50.032Z,22.89
2018-07-06T09:53:20.620Z,21.78
2018-07-06T09:55:51.218Z,22.91
2018-07-06T09:58:21.714Z,24.43
2018-07-06T10:00:57.136Z,23.94
2018-07-06T10:03:28.174Z,23.87
2018-07-06T10:05:59.043Z,22.05
2018-07-06T10:08:29.741Z,22.75
2018-07-06T10:11:00.229Z,22.74
2018-07-06T10:13:30.663Z,21.98
2018-07-06T10:16:01.115Z,21.32
2018-07-06T10:18:32.344Z,19.68
2018-07-06T10:21:03.021Z,20.34
2018-07-06T10:23:33.739Z,21.70
2018-07-06T10:26:05.646Z,21.18
2018-07-06T10:28:51.243Z,21.28
2018-07-06T10:33:37.700Z,19.40
2018-07-06T10:36:08.135Z,22.59
2018-07-06T10:38:38.700Z,22.29
2018-07-06T10:41:09.987Z,21.23
2018-07-06T10:43:40.486Z,21.31
2018-07-06T10:46:11.128Z,21.81
2018-07-06T10:48:42.543Z,23.19
2018-07-06T10:51:13.122Z,21.46
2018-07-06T10:53:43.472Z,21.75
2018-07-06T10:56:14.007Z,21.57
2018-07-06T10:58:44.672Z,21.29
2018-07-06T11:01:14.971Z,19.80
2018-07-06T11:03:45.473Z,19.67
2018-07-06T11:06:16.019Z,20.82
2018-07-06T11:08:46.492Z,22.14
2018-07-06T11:11:18.648Z,22.95
2018-07-06T11:13:49.500Z,22.34
2018-07-06T11:16:19.988Z,20.76
2018-07-06T11:18:50.574Z,21.67
2018-07-06T11:21:20.940Z,21.72
2018-07-06T11:23:51.452Z,23.12
2018-07-06T11:26:21.951Z,22.11
2018-07-06T11:28:52.608Z,21.18
2018-07-06T11:31:23.043Z,21.46
2018-07-06T11:33:53.419Z,19.55
2018-07-06T11:36:24.066Z,20.54
2018-07-06T11:38:54.457Z,21.02
2018-07-06T11:41:25.069Z,21.72
2018-07-06T11:43:56.506Z,21.52
2018-07-06T11:46:27.209Z,22.69
2018-07-06T11:48:57.582Z,21.19
2018-07-06T11:51:28.184Z,19.98
2018-07-06T11:53:58.785Z,20.52
2018-07-06T11:56:29.203Z,20.09
2018-07-06T11:58:59.641Z,21.40
2018-07-06T12:01:30.102Z,22.54
2018-07-06T12:04:00.501Z,23.36
2018-07-06T12:06:30.914Z,22.94
2018-07-06T12:09:01.465Z,24.26
2018-07-06T12:11:31.948Z,24.71
2018-07-06T12:14:02.365Z,24.69
2018-07-06T12:16:32.984Z,23.23
2018-07-06T12:19:03.481Z,22.27
2018-07-06T12:21:34.054Z,21.69
2018-07-06T12:24:04.601Z,23.12
2018-07-06T12:26:34.995Z,22.72
2018-07-06T12:29:05.464Z,22.86
2018-07-06T12:31:35.909Z,23.64
2018-07-06T12:34:06.640Z,23.24
2018-07-06T12:36:37.065Z,22.92
2018-07-06T12:39:08.359Z,23.29
2018-07-06T12:41:38.820Z,23.09
2018-07-06T12:44:09.316Z,23.36
2018-07-06T12:46:39.905Z,23.21
2018-07-06T12:49:10.323Z,23.36
2018-07-06T12:51:41.419Z,22.47
2018-07-06T12:54:11.738Z,23.29
2018-07-06T12:56:42.299Z,22.96
2018-07-06T12:59:12.852Z,23.22
2018-07-06T13:01:43.402Z,22.69
2018-07-06T13:04:13.981Z,23.82
2018-07-06T13:06:44.639Z,23.49
2018-07-06T13:09:15.315Z,23.56
2018-07-06T13:11:45.825Z,22.02
2018-07-06T13:14:17.113Z,22.73
2018-07-06T13:16:47.760Z,23.09
2018-07-06T13:19:18.271Z,23.41
2018-07-06T13:21:48.910Z,22.38
2018-07-06T13:24:19.398Z,23.02
2018-07-06T13:26:49.980Z,21.82
2018-07-06T13:29:20.434Z,22.31
2018-07-06T13:31:51.813Z,22.02
2018-07-06T13:34:22.206Z,22.00
2018-07-06T13:36:52.684Z,21.60
2018-07-06T13:39:23.192Z,21.57
2018-07-06T13:42:19.778Z,21.55
2018-07-06T13:44:50.891Z,22.78
2018-07-06T13:47:21.513Z,22.19
2018-07-06T13:49:52.353Z,22.45
2018-07-06T13:52:22.809Z,23.61
2018-07-06T13:54:53.255Z,23.32
2018-07-06T13:57:23.888Z,23.54
2018-07-06T13:59:54.238Z,22.56
2018-07-06T14:02:25.036Z,23.89
2018-07-06T14:04:55.602Z,23.80
2018-07-06T14:07:26.107Z,24.03
2018-07-06T14:09:59.947Z,24.69
2018-07-06T14:12:32.205Z,25.36
2018-07-06T14:15:02.691Z,25.93
2018-07-06T14:17:34.492Z,24.66
2018-07-06T14:20:06.181Z,23.96
2018-07-06T14:22:37.015Z,24.05
2018-07-06T14:25:09.491Z,25.16
2018-07-06T14:27:40.376Z,24.37
2018-07-06T14:30:10.999Z,23.75
2018-07-06T14:32:41.654Z,23.82
2018-07-06T14:35:12.456Z,24.01
2018-07-06T14:37:43.846Z,24.56
2018-07-06T14:40:14.435Z,24.24
2018-07-06T14:42:45.048Z,23.81
2018-07-06T14:45:15.521Z,23.49
2018-07-06T14:47:46.248Z,23.44
2018-07-06T14:50:16.693Z,23.65
2018-07-06T14:52:47.296Z,22.22
2018-07-06T14:55:17.909Z,22.42
2018-07-06T14:57:48.452Z,22.46
2018-07-06T15:00:19.107Z,23.64
2018-07-06T15:02:50.282Z,23.41
2018-07-06T15:05:20.878Z,23.41
2018-07-06T15:07:51.585Z,23.49
2018-07-06T15:10:22.290Z,23.22
2018-07-06T15:12:52.876Z,23.27
2018-07-06T15:15:23.607Z,22.60
2018-07-06T15:17:54.121Z,22.55
2018-07-06T15:20:24.792Z,22.93
2018-07-06T15:22:55.473Z,23.02
2018-07-06T15:25:26.126Z,22.45
2018-07-06T15:27:56.706Z,23.26
2018-07-06T15:30:27.410Z,22.68
2018-07-06T15:32:57.907Z,23.35
2018-07-06T15:35:28.293Z,21.96
2018-07-06T15:37:58.958Z,22.65
2018-07-06T15:40:29.451Z,23.63
2018-07-06T15:42:59.962Z,23.08
2018-07-06T15:45:30.437Z,23.67
2018-07-06T15:48:01.004Z,23.14
2018-07-06T15:50:31.577Z,24.11
2018-07-06T15:53:02.241Z,24.21
2018-07-06T15:55:35.007Z,23.71
2018-07-06T15:58:05.506Z,23.96
2018-07-06T16:00:36.191Z,24.43
2018-07-06T16:03:06.690Z,25.16
2018-07-06T16:05:37.165Z,25.44
2018-07-06T16:08:07.768Z,25.15
2018-07-06T16:10:38.348Z,25.44
2018-07-06T16:13:08.961Z,25.10
2018-07-06T16:15:39.406Z,25.65
2018-07-06T16:18:10.115Z,25.74
2018-07-06T16:20:40.700Z,26.25
2018-07-06T16:23:12.349Z,26.60
2018-07-06T16:25:43.873Z,27.03
2018-07-06T16:28:14.466Z,27.14
2018-07-06T16:30:45.059Z,28.11
2018-07-06T16:33:15.422Z,27.22
2018-07-06T16:35:46.053Z,28.58
2018-07-06T16:38:17.662Z,29.06
2018-07-06T16:40:48.242Z,29.67
2018-07-06T16:43:18.854Z,30.73
2018-07-06T16:45:49.689Z,31.14
2018-07-06T16:48:20.153Z,31.35
2018-07-06T16:50:50.759Z,31.58
2018-07-06T16:53:21.509Z,31.92
2018-07-06T16:55:52.225Z,32.39
2018-07-06T16:58:22.790Z,34.60
2018-07-06T17:00:53.552Z,36.91
2018-07-06T17:03:24.208Z,36.78
2018-07-06T17:05:54.730Z,38.08
2018-07-06T17:08:25.388Z,39.70
2018-07-06T17:10:55.912Z,42.96
2018-07-06T17:13:26.672Z,46.18
2018-07-06T17:15:57.203Z,47.81
2018-07-06T17:18:27.692Z,48.83
2018-07-06T17:20:58.378Z,49.97
2018-07-06T17:23:29.059Z,50.75
2018-07-06T17:25:59.766Z,53.19
2018-07-06T17:28:30.542Z,58.96
2018-07-06T17:31:00.903Z,64.59
2018-07-06T17:33:32.115Z,69.41
2018-07-06T17:36:02.636Z,73.29
2018-07-06T17:38:34.480Z,73.71
2018-07-06T17:41:04.957Z,71.24
2018-07-06T17:43:35.474Z,71.85
2018-07-06T17:46:06.355Z,70.44
2018-07-06T17:48:36.789Z,69.50
2018-07-06T17:51:07.301Z,67.13
2018-07-06T17:53:37.855Z,67.08
2018-07-06T17:56:08.546Z,66.69
2018-07-06T17:58:39.067Z,65.53
2018-07-06T18:01:09.858Z,66.82
2018-07-06T18:03:40.433Z,67.04
2018-07-06T18:06:10.842Z,66.50
2018-07-06T18:08:41.501Z,66.41
2018-07-06T18:11:12.047Z,66.75
2018-07-06T18:13:43.138Z,66.44
2018-07-06T18:16:15.200Z,65.16
2018-07-06T18:18:46.634Z,63.89
2018-07-06T18:21:17.516Z,62.95
2018-07-06T18:23:48.480Z,63.20
2018-07-06T18:26:19.007Z,64.83
2018-07-06T18:28:49.481Z,62.49
2018-07-06T18:31:20.075Z,59.57
2018-07-06T18:33:50.560Z,57.52
2018-07-06T18:36:22.501Z,57.80
2018-07-06T18:38:54.056Z,58.29
2018-07-06T18:41:24.677Z,59.55
2018-07-06T18:43:55.291Z,59.83
2018-07-06T18:46:25.992Z,58.12
2018-07-06T18:48:56.911Z,58.81
2018-07-06T18:51:27.557Z,60.12
2018-07-06T18:53:58.092Z,60.01
2018-07-06T18:56:28.685Z,61.18
2018-07-06T18:58:59.244Z,59.75
2018-07-06T19:01:29.829Z,60.21
2018-07-06T19:04:00.987Z,58.06
2018-07-06T19:06:31.433Z,58.97
2018-07-06T19:09:02.197Z,59.12
2018-07-06T19:11:32.784Z,60.38
2018-07-06T19:14:03.629Z,60.33
2018-07-06T19:16:34.401Z,59.96
2018-07-06T19:19:04.913Z,60.50
2018-07-06T19:21:35.659Z,61.07
2018-07-06T19:24:06.201Z,61.38
2018-07-06T19:26:36.774Z,61.31
2018-07-06T19:29:07.219Z,61.87
2018-07-06T19:31:37.804Z,62.06
2018-07-06T19:34:08.362Z,61.86
2018-07-06T19:36:40.545Z,61.86
2018-07-06T19:39:10.998Z,63.07
2018-07-06T19:41:41.782Z,63.80
2018-07-06T19:44:12.468Z,63.32
2018-07-06T19:46:43.148Z,64.32
2018-07-06T19:49:13.749Z,63.83
2018-07-06T19:51:44.349Z,64.01
2018-07-06T19:54:14.994Z,64.28
2018-07-06T19:56:45.785Z,63.99
2018-07-06T19:59:16.305Z,63.57
2018-07-06T20:01:46.743Z,64.17
2018-07-06T20:04:17.538Z,64.75
2018-07-06T20:06:48.227Z,65.54
2018-07-06T20:09:18.852Z,65.88
2018-07-06T20:11:49.551Z,65.59
2018-07-06T20:14:20.244Z,66.43
2018-07-06T20:16:50.823Z,67.02
2018-07-06T20:19:21.401Z,66.30
2018-07-06T20:21:51.980Z,67.01
2018-07-06T20:24:22.448Z,66.80
2018-07-06T20:26:53.271Z,67.19
2018-07-06T20:29:23.843Z,67.61
2018-07-06T20:31:54.476Z,68.48
2018-07-06T20:34:25.094Z,68.15
2018-07-06T20:36:55.573Z,68.29
2018-07-06T20:39:26.818Z,68.74
2018-07-06T20:41:57.376Z,67.87
2018-07-06T20:44:28.068Z,68.25
2018-07-06T20:46:58.594Z,68.05
2018-07-06T20:49:29.196Z,68.42
2018-07-06T20:51:59.828Z,68.56
2018-07-06T20:54:30.236Z,68.38
2018-07-06T20:57:00.759Z,68.43
2018-07-06T20:59:31.346Z,68.72
2018-07-06T21:02:02.423Z,69.09
2018-07-06T21:04:33.255Z,68.59
2018-07-06T21:07:04.044Z,68.83
2018-07-06T21:09:34.782Z,68.29
2018-07-06T21:12:05.647Z,68.34
2018-07-06T21:14:36.066Z,68.97
2018-07-06T21:17:06.452Z,68.60
2018-07-06T21:19:37.113Z,68.76
2018-07-06T21:22:07.780Z,68.53
2018-07-06T21:24:38.322Z,69.05
2018-07-06T21:27:09.562Z,69.37
2018-07-06T21:29:40.257Z,69.18
2018-07-06T21:32:14.697Z,70.06
2018-07-06T21:34:45.489Z,70.38
2018-07-06T21:37:16.548Z,70.37
2018-07-06T21:39:47.053Z,70.10
2018-07-06T21:42:17.653Z,70.65
2018-07-06T21:44:48.358Z,70.44
2018-07-06T21:47:18.822Z,70.15
2018-07-06T21:49:49.940Z,70.75
2018-07-06T21:52:20.596Z,71.42
2018-07-06T21:54:51.880Z,70.87
2018-07-06T21:57:22.491Z,71.18
2018-07-06T21:59:52.994Z,70.57
2018-07-06T22:02:23.548Z,71.50
2018-07-06T22:04:54.260Z,71.31
2018-07-06T22:07:25.016Z,71.66
2018-07-06T22:09:55.667Z,70.96
2018-07-06T22:12:26.543Z,70.40
2018-07-06T22:14:57.137Z,70.54
2018-07-06T22:17:27.770Z,69.80
2018-07-06T22:19:58.607Z,70.40
2018-07-06T22:22:29.071Z,69.67
2018-07-06T22:24:59.636Z,69.87
2018-07-06T22:27:30.144Z,69.47
2018-07-06T22:30:00.596Z,69.48
2018-07-06T22:32:31.303Z,69.74
2018-07-06T22:35:01.919Z,69.35
2018-07-06T22:37:32.546Z,69.50
2018-07-06T22:40:03.880Z,69.89
2018-07-06T22:42:34.748Z,69.66
2018-07-06T22:45:05.438Z,69.84
2018-07-06T22:47:36.280Z,71.04
2018-07-06T22:50:06.764Z,71.29
2018-07-06T22:52:37.526Z,71.43
2018-07-06T22:55:08.115Z,71.60
2018-07-06T22:57:38.708Z,71.93
2018-07-06T23:00:10.292Z,71.68
2018-07-06T23:02:40.593Z,71.21
2018-07-06T23:05:13.892Z,70.87
2018-07-06T23:07:44.441Z,72.13
2018-07-06T23:10:15.001Z,71.14
2018-07-06T23:12:47.302Z,71.61
2018-07-06T23:15:18.991Z,73.23
2018-07-06T23:17:49.893Z,73.31
2018-07-06T23:20:20.447Z,74.12
2018-07-06T23:22:59.664Z,74.61
2018-07-06T23:25:30.648Z,74.77
2018-07-06T23:28:01.159Z,75.73
2018-07-06T23:30:32.017Z,76.40
2018-07-06T23:33:04.613Z,76.10
2018-07-06T23:35:35.500Z,75.82
2018-07-06T23:38:06.471Z,76.36
2018-07-06T23:40:37.484Z,77.50
2018-07-06T23:43:08.263Z,77.01
2018-07-06T23:45:39.190Z,76.95
2018-07-06T23:48:09.911Z,77.79
2018-07-06T23:50:40.379Z,77.11
2018-07-06T23:53:11.169Z,77.06
2018-07-06T23:55:43.796Z,77.87
2018-07-06T23:58:15.576Z,78.09
